createdAt,value
2022-09-22T00:01:29.354Z,75.03
2022-09-22T00:04:00.443Z,74.90
2022-09-22T00:06:31.788Z,74.64
2022-09-22T00:09:01.312Z,75.37
2022-09-22T00:11:33.449Z,74.89
2022-09-22T00:14:29.432Z,75.04
2022-09-22T00:17:03.845Z,75.16
2022-09-22T00:25:10.424Z,74.55
2022-09-22T00:27:37.627Z,74.80
2022-09-22T00:30:05.624Z,75.13
2022-09-22T00:32:32.789Z,75.38
2022-09-22T00:34:59.945Z,75.61
2022-09-22T00:37:27.158Z,75.82
2022-09-22T00:39:54.423Z,75.81
2022-09-22T00:42:22.324Z,75.55
2022-09-22T00:44:49.838Z,76.33
2022-09-22T00:47:32.907Z,76.20
2022-09-22T00:50:09.401Z,76.33
2022-09-22T00:53:02.407Z,75.97
2022-09-22T00:55:45.070Z,76.06
2022-09-22T00:58:17.645Z,75.92
2022-09-22T01:00:45.733Z,75.99
2022-09-22T01:03:20.485Z,76.20
2022-09-22T01:05:51.942Z,75.92
2022-09-22T01:08:21.792Z,75.54
2022-09-22T01:10:50.216Z,75.47
2022-09-22T01:13:36.175Z,74.75
2022-09-22T01:16:34.679Z,75.24
2022-09-22T01:19:36.060Z,75.45
2022-09-22T01:22:06.180Z,75.29
2022-09-22T01:24:54.702Z,75.11
2022-09-22T01:28:31.986Z,75.27
2022-09-22T01:32:03.573Z,74.86
2022-09-22T01:34:50.132Z,74.52
2022-09-22T01:37:27.102Z,74.26
2022-09-22T01:40:12.563Z,74.12
2022-09-22T01:42:49.746Z,74.05
2022-09-22T01:45:22.987Z,74.43
2022-09-22T01:48:11.606Z,74.42
2022-09-22T01:50:49.720Z,74.45
2022-09-22T01:53:22.850Z,74.44
2022-09-22T01:55:59.162Z,74.30
2022-09-22T01:58:33.381Z,74.70
2022-09-22T02:01:18.176Z,74.34
2022-09-22T02:03:56.840Z,74.40
2022-09-22T02:06:35.967Z,73.84
2022-09-22T02:09:09.980Z,73.69
2022-09-22T02:11:37.746Z,74.50
2022-09-22T02:14:06.320Z,74.60
2022-09-22T02:16:34.271Z,74.06
2022-09-22T02:19:19.977Z,73.65
2022-09-22T02:21:48.822Z,73.96
2022-09-22T02:24:42.538Z,74.24
2022-09-22T02:27:26.346Z,74.51
2022-09-22T02:30:13.064Z,74.45
2022-09-22T02:32:45.573Z,74.11
2022-09-22T02:35:13.386Z,74.19
2022-09-22T02:37:56.188Z,74.03
2022-09-22T02:40:48.745Z,74.36
2022-09-22T02:43:44.076Z,74.50
2022-09-22T02:46:24.255Z,74.22
2022-09-22T02:49:00.762Z,74.45
2022-09-22T02:51:33.074Z,74.28
2022-09-22T02:54:01.837Z,74.92
2022-09-22T02:56:29.620Z,74.28
2022-09-22T02:58:58.594Z,74.75
2022-09-22T03:01:26.595Z,74.63
2022-09-22T03:03:54.214Z,74.95
2022-09-22T03:06:21.458Z,74.83
2022-09-22T03:08:48.657Z,75.32
2022-09-22T03:11:15.797Z,75.60
2022-09-22T03:13:42.925Z,75.51
2022-09-22T03:16:10.314Z,76.80
2022-09-22T03:18:37.640Z,76.31
2022-09-22T03:21:05.291Z,76.35
2022-09-22T03:23:32.464Z,76.44
2022-09-22T03:25:59.639Z,76.72
2022-09-22T03:28:26.866Z,76.96
2022-09-22T03:30:54.087Z,77.87
2022-09-22T03:33:21.310Z,77.73
2022-09-22T03:35:48.473Z,77.78
2022-09-22T03:38:15.675Z,77.95
2022-09-22T03:40:51.079Z,77.93
2022-09-22T03:43:18.603Z,78.49
2022-09-22T03:45:46.032Z,78.40
2022-09-22T03:48:13.577Z,78.41
2022-09-22T03:50:40.825Z,77.91
2022-09-22T03:53:08.040Z,77.28
2022-09-22T03:55:35.362Z,75.91
2022-09-22T03:58:03.867Z,76.41
2022-09-22T04:00:31.128Z,76.31
2022-09-22T04:02:59.198Z,76.75
2022-09-22T04:05:26.754Z,76.83
2022-09-22T04:07:54.019Z,77.02
2022-09-22T04:10:21.474Z,77.26
2022-09-22T04:12:49.030Z,77.53
2022-09-22T04:15:16.348Z,77.96
2022-09-22T04:17:45.148Z,77.91
2022-09-22T04:20:12.388Z,78.08
2022-09-22T04:22:39.883Z,78.65
2022-09-22T04:25:08.352Z,78.78
2022-09-22T04:27:35.551Z,78.54
2022-09-22T04:30:03.204Z,78.84
2022-09-22T04:32:33.360Z,79.12
2022-09-22T04:35:00.716Z,79.45
2022-09-22T04:37:28.050Z,79.78
2022-09-22T04:39:55.873Z,79.81
2022-09-22T04:42:23.111Z,80.38
2022-09-22T04:44:50.330Z,80.99
2022-09-22T04:47:17.711Z,81.42
2022-09-22T04:49:45.130Z,81.21
2022-09-22T04:52:12.320Z,81.16
2022-09-22T04:54:39.551Z,81.46
2022-09-22T04:57:06.775Z,81.75
2022-09-22T04:59:35.412Z,81.98
2022-09-22T05:02:03.172Z,82.28
2022-09-22T05:04:30.433Z,82.19
2022-09-22T05:06:57.679Z,81.48
2022-09-22T05:09:24.856Z,80.30
2022-09-22T05:11:52.086Z,81.10
2022-09-22T05:14:24.075Z,80.28
2022-09-22T05:16:53.455Z,80.19
2022-09-22T05:19:21.270Z,80.96
2022-09-22T05:21:48.555Z,80.34
2022-09-22T05:24:15.852Z,80.35
2022-09-22T05:26:43.038Z,80.18
2022-09-22T05:29:10.373Z,80.60
2022-09-22T05:31:37.654Z,80.02
2022-09-22T05:34:04.940Z,79.82
2022-09-22T05:36:32.278Z,79.70
2022-09-22T05:38:59.826Z,79.95
2022-09-22T05:41:27.095Z,79.55
2022-09-22T05:43:54.259Z,79.96
2022-09-22T05:46:21.627Z,80.05
2022-09-22T05:48:48.898Z,80.09
2022-09-22T05:51:16.176Z,80.09
2022-09-22T05:53:43.361Z,80.52
2022-09-22T05:56:10.525Z,79.95
2022-09-22T05:58:37.789Z,80.87
2022-09-22T06:01:05.134Z,80.77
2022-09-22T06:03:32.426Z,80.97
2022-09-22T06:05:59.610Z,81.75
2022-09-22T06:08:26.777Z,81.39
2022-09-22T06:10:54.002Z,81.67
2022-09-22T06:13:21.292Z,81.24
2022-09-22T06:15:49.022Z,80.96
2022-09-22T06:18:23.383Z,80.95
2022-09-22T06:20:51.576Z,80.47
2022-09-22T06:23:19.146Z,80.24
2022-09-22T06:25:46.346Z,80.21
2022-09-22T06:28:14.686Z,80.15
2022-09-22T06:30:43.072Z,80.82
2022-09-22T06:33:12.057Z,80.27
2022-09-22T06:35:43.025Z,80.16
2022-09-22T06:38:15.090Z,80.15
2022-09-22T06:40:43.187Z,80.89
2022-09-22T06:43:24.256Z,80.69
2022-09-22T06:45:52.812Z,80.82
2022-09-22T06:48:23.804Z,80.69
2022-09-22T06:50:54.361Z,80.78
2022-09-22T06:53:25.136Z,80.17
2022-09-22T06:55:54.201Z,80.46
2022-09-22T06:58:22.518Z,81.05
2022-09-22T07:00:50.748Z,80.78
2022-09-22T07:03:22.749Z,81.67
2022-09-22T07:06:01.076Z,81.15
2022-09-22T07:08:31.039Z,81.77
2022-09-22T07:11:04.453Z,81.62
2022-09-22T07:13:33.973Z,82.04
2022-09-22T07:16:08.216Z,81.74
2022-09-22T07:18:36.535Z,81.69
2022-09-22T07:21:09.452Z,81.96
2022-09-22T07:23:36.830Z,82.78
2022-09-22T07:26:13.011Z,82.23
2022-09-22T07:28:41.418Z,82.06
2022-09-22T07:31:12.605Z,82.33
2022-09-22T07:33:43.254Z,82.70
2022-09-22T07:36:14.369Z,82.28
2022-09-22T07:38:43.765Z,82.12
2022-09-22T07:41:14.740Z,81.85
2022-09-22T07:43:42.662Z,81.26
2022-09-22T07:46:09.945Z,81.65
2022-09-22T07:48:38.270Z,81.76
2022-09-22T07:51:12.898Z,81.62
2022-09-22T07:53:43.005Z,81.44
2022-09-22T07:56:13.514Z,80.83
2022-09-22T07:58:51.701Z,80.52
2022-09-22T08:01:22.476Z,81.22
2022-09-22T08:03:51.016Z,81.64
2022-09-22T08:06:23.701Z,80.62
2022-09-22T08:08:56.456Z,80.71
2022-09-22T08:11:27.369Z,79.94
2022-09-22T08:14:02.891Z,79.79
2022-09-22T08:16:34.500Z,80.44
2022-09-22T08:19:11.437Z,79.78
2022-09-22T08:21:48.339Z,80.41
2022-09-22T08:24:22.909Z,79.91
2022-09-22T08:26:53.146Z,78.42
2022-09-22T08:29:21.520Z,78.88
2022-09-22T08:31:49.728Z,78.59
2022-09-22T08:34:18.200Z,75.50
2022-09-22T08:36:48.893Z,78.24
2022-09-22T08:39:18.189Z,79.12
2022-09-22T08:41:59.899Z,78.42
2022-09-22T08:44:37.520Z,75.74
2022-09-22T08:47:05.405Z,75.93
2022-09-22T08:50:06.223Z,77.04
2022-09-22T08:52:48.928Z,74.96
2022-09-22T08:55:23.992Z,74.06
2022-09-22T08:58:23.655Z,74.34
2022-09-22T09:01:19.185Z,73.63
2022-09-22T09:04:36.314Z,72.72
2022-09-22T09:07:37.302Z,73.84
2022-09-22T09:10:16.238Z,73.24
2022-09-22T09:13:00.880Z,73.31
2022-09-22T09:15:58.373Z,72.10
2022-09-22T09:18:39.503Z,71.22
2022-09-22T09:21:14.659Z,71.98
2022-09-22T09:29:19.139Z,73.79
2022-09-22T09:31:53.826Z,73.05
2022-09-22T09:34:28.969Z,74.51
2022-09-22T09:37:07.488Z,74.38
2022-09-22T09:39:39.188Z,72.42
2022-09-22T09:42:24.846Z,70.47
2022-09-22T09:44:54.161Z,71.98
2022-09-22T09:47:59.142Z,70.77
2022-09-22T09:50:32.300Z,71.31
2022-09-22T09:53:00.771Z,69.11
2022-09-22T09:55:28.207Z,69.33
2022-09-22T09:58:33.126Z,68.21
2022-09-22T10:01:01.517Z,69.94
2022-09-22T10:03:35.467Z,70.48
2022-09-22T10:06:07.249Z,71.25
2022-09-22T10:08:47.283Z,66.87
2022-09-22T10:11:15.245Z,68.70
2022-09-22T10:13:44.473Z,69.22
2022-09-22T10:16:23.863Z,68.15
2022-09-22T10:19:13.349Z,63.53
2022-09-22T10:21:40.550Z,63.66
2022-09-22T10:24:29.774Z,62.43
2022-09-22T10:26:57.484Z,62.85
2022-09-22T10:29:25.830Z,63.29
2022-09-22T10:32:16.404Z,61.93
2022-09-22T10:34:48.903Z,62.37
2022-09-22T10:37:29.624Z,61.93
2022-09-22T10:40:02.242Z,60.16
2022-09-22T10:42:40.976Z,60.41
2022-09-22T10:45:15.416Z,59.71
2022-09-22T10:48:00.358Z,61.63
2022-09-22T10:50:58.837Z,61.01
2022-09-22T10:54:07.269Z,61.95
2022-09-22T10:56:53.424Z,61.80
2022-09-22T10:59:47.672Z,62.29
2022-09-22T11:02:39.450Z,60.78
2022-09-22T11:05:43.944Z,62.06
2022-09-22T11:08:36.929Z,62.01
2022-09-22T11:11:45.907Z,60.90
2022-09-22T11:14:19.045Z,61.69
2022-09-22T11:17:16.379Z,59.44
2022-09-22T11:20:09.481Z,60.47
2022-09-22T11:23:08.048Z,59.23
2022-09-22T11:26:07.635Z,58.68
2022-09-22T11:29:24.714Z,58.77
2022-09-22T11:32:16.131Z,59.30
2022-09-22T11:35:01.638Z,60.14
2022-09-22T11:37:50.434Z,60.31
2022-09-22T11:40:52.322Z,61.07
2022-09-22T11:43:46.605Z,60.00
2022-09-22T11:46:38.465Z,61.25
2022-09-22T11:49:26.724Z,59.20
2022-09-22T11:52:31.426Z,59.77
2022-09-22T11:55:30.669Z,60.52
2022-09-22T11:58:04.804Z,60.09
2022-09-22T12:00:51.578Z,61.39
2022-09-22T12:03:31.835Z,61.18
2022-09-22T12:06:09.516Z,60.23
2022-09-22T12:08:56.607Z,59.91
2022-09-22T12:11:28.317Z,60.26
2022-09-22T12:13:58.051Z,61.25
2022-09-22T12:16:51.182Z,60.73
2022-09-22T12:19:32.931Z,60.10
2022-09-22T12:22:15.175Z,58.44
2022-09-22T12:24:47.497Z,57.90
2022-09-22T12:27:26.226Z,57.08
2022-09-22T12:30:04.542Z,58.68
2022-09-22T12:32:42.642Z,54.48
2022-09-22T12:35:31.480Z,55.18
2022-09-22T12:38:02.823Z,55.88
2022-09-22T12:40:37.364Z,56.28
2022-09-22T12:43:04.925Z,55.87
2022-09-22T12:45:34.373Z,56.46
2022-09-22T12:48:22.285Z,57.13
2022-09-22T12:50:51.078Z,55.33
2022-09-22T12:53:21.800Z,56.09
2022-09-22T12:55:57.126Z,54.97
2022-09-22T12:58:30.220Z,56.47
2022-09-22T13:01:31.717Z,54.77
2022-09-22T13:04:16.954Z,55.46
2022-09-22T13:06:44.100Z,53.79
2022-09-22T13:09:24.340Z,52.88
2022-09-22T13:12:13.280Z,53.42
2022-09-22T13:15:08.268Z,53.34
2022-09-22T13:17:50.353Z,53.85
2022-09-22T13:20:30.397Z,54.06
2022-09-22T13:23:14.118Z,55.53
2022-09-22T13:25:44.697Z,56.17
2022-09-22T13:28:26.034Z,54.23
2022-09-22T13:31:13.640Z,53.32
2022-09-22T13:33:41.111Z,51.84
2022-09-22T13:36:08.518Z,51.88
2022-09-22T13:38:45.774Z,51.34
2022-09-22T13:41:19.104Z,50.94
2022-09-22T13:44:11.845Z,49.98
2022-09-22T13:46:49.192Z,49.74
2022-09-22T13:49:39.986Z,48.79
2022-09-22T13:52:23.435Z,48.93
2022-09-22T13:54:56.998Z,49.11
2022-09-22T13:57:29.951Z,47.50
2022-09-22T14:00:04.753Z,47.54
2022-09-22T14:02:32.861Z,48.35
2022-09-22T14:05:05.689Z,47.67
2022-09-22T14:07:49.643Z,49.99
2022-09-22T14:10:27.795Z,47.90
2022-09-22T14:12:55.954Z,48.56
2022-09-22T14:15:43.572Z,49.86
2022-09-22T14:18:19.791Z,49.87
2022-09-22T14:20:48.373Z,49.68
2022-09-22T14:23:37.248Z,48.32
2022-09-22T14:26:24.331Z,48.16
2022-09-22T14:28:53.691Z,48.51
2022-09-22T14:31:29.472Z,51.11
2022-09-22T14:33:57.480Z,50.59
2022-09-22T14:36:26.365Z,49.47
2022-09-22T14:39:09.705Z,48.76
2022-09-22T14:41:38.402Z,48.51
2022-09-22T14:44:32.643Z,48.76
2022-09-22T14:47:29.098Z,49.19
2022-09-22T14:50:20.488Z,48.70
2022-09-22T14:52:58.180Z,49.73
2022-09-22T14:55:34.504Z,49.87
2022-09-22T14:58:12.100Z,51.43
2022-09-22T15:01:20.428Z,52.69
2022-09-22T15:04:23.371Z,53.10
2022-09-22T15:06:56.863Z,52.25
2022-09-22T15:09:38.833Z,51.90
2022-09-22T15:12:25.731Z,51.10
2022-09-22T15:15:00.244Z,50.79
2022-09-22T15:17:54.060Z,51.25
2022-09-22T15:20:57.118Z,51.02
2022-09-22T15:23:31.757Z,50.43
2022-09-22T15:26:04.103Z,51.19
2022-09-22T15:28:37.207Z,50.99
2022-09-22T15:31:06.121Z,51.12
2022-09-22T15:33:33.667Z,50.51
2022-09-22T15:36:13.043Z,51.53
2022-09-22T15:38:41.312Z,51.89
2022-09-22T15:41:11.865Z,50.73
2022-09-22T15:43:40.786Z,51.90
2022-09-22T15:46:23.312Z,51.85
2022-09-22T15:48:50.490Z,52.65
2022-09-22T15:51:17.659Z,52.66
2022-09-22T15:53:45.528Z,53.34
2022-09-22T15:56:19.960Z,52.49
2022-09-22T15:58:49.938Z,53.15
2022-09-22T16:01:17.735Z,53.66
2022-09-22T16:03:46.164Z,55.61
2022-09-22T16:06:17.058Z,55.03
2022-09-22T16:08:51.602Z,55.89
2022-09-22T16:11:31.155Z,54.78
2022-09-22T16:14:03.514Z,54.99
2022-09-22T16:16:33.621Z,55.83
2022-09-22T16:19:01.441Z,56.60
2022-09-22T16:21:38.673Z,56.34
2022-09-22T16:24:10.208Z,57.19
2022-09-22T16:26:39.953Z,56.51
2022-09-22T16:29:08.666Z,55.52
2022-09-22T16:31:37.307Z,57.51
2022-09-22T16:34:06.759Z,57.39
2022-09-22T16:36:36.498Z,56.64
2022-09-22T16:39:05.503Z,58.20
2022-09-22T16:41:35.225Z,58.80
2022-09-22T16:44:03.980Z,58.41
2022-09-22T16:46:33.785Z,58.60
2022-09-22T16:49:05.807Z,57.64
2022-09-22T16:51:36.440Z,57.50
2022-09-22T16:54:07.039Z,57.39
2022-09-22T16:56:37.895Z,58.74
2022-09-22T16:59:05.965Z,58.07
2022-09-22T17:01:37.743Z,59.25
2022-09-22T17:04:07.692Z,59.88
2022-09-22T17:06:37.740Z,60.10
2022-09-22T17:09:06.845Z,61.71
2022-09-22T17:11:39.237Z,60.80
2022-09-22T17:14:13.660Z,62.00
2022-09-22T17:16:48.725Z,62.26
2022-09-22T17:19:26.250Z,62.81
2022-09-22T17:21:55.807Z,62.89
2022-09-22T17:24:25.492Z,62.45
2022-09-22T17:26:56.149Z,62.99
2022-09-22T17:29:26.886Z,63.21
2022-09-22T17:32:02.708Z,63.44
2022-09-22T17:34:33.010Z,63.33
2022-09-22T17:37:01.389Z,63.66
2022-09-22T17:39:30.124Z,64.94
2022-09-22T17:41:57.402Z,63.99
2022-09-22T17:44:26.696Z,64.62
2022-09-22T17:47:12.642Z,64.80
2022-09-22T17:49:59.095Z,65.28
2022-09-22T17:52:29.688Z,64.87
2022-09-22T17:55:09.181Z,65.35
2022-09-22T17:57:42.815Z,64.73
2022-09-22T18:00:24.596Z,64.28
2022-09-22T18:02:54.211Z,64.80
2022-09-22T18:05:26.793Z,64.63
2022-09-22T18:07:58.607Z,64.80
2022-09-22T18:10:32.327Z,64.58
2022-09-22T18:13:00.991Z,64.95
2022-09-22T18:15:29.278Z,65.35
2022-09-22T18:17:58.117Z,64.97
2022-09-22T18:20:26.311Z,65.91
2022-09-22T18:22:54.797Z,65.80
2022-09-22T18:25:25.531Z,66.23
2022-09-22T18:27:53.608Z,66.32
2022-09-22T18:30:20.948Z,66.06
2022-09-22T18:32:48.986Z,66.28
2022-09-22T18:35:16.844Z,66.17
2022-09-22T18:37:44.195Z,66.41
2022-09-22T18:40:12.665Z,65.88
2022-09-22T18:42:41.522Z,65.66
2022-09-22T18:45:11.089Z,66.52
2022-09-22T18:47:40.882Z,66.19
2022-09-22T18:50:09.881Z,66.57
2022-09-22T18:52:37.393Z,66.95
2022-09-22T18:55:09.396Z,66.52
2022-09-22T18:57:36.629Z,67.39
2022-09-22T19:00:05.840Z,67.27
2022-09-22T19:02:33.121Z,67.30
2022-09-22T19:05:00.318Z,67.17
2022-09-22T19:07:43.098Z,67.84
2022-09-22T19:10:14.184Z,67.29
2022-09-22T19:12:42.720Z,67.28
2022-09-22T19:15:16.759Z,67.98
2022-09-22T19:17:47.007Z,67.71
2022-09-22T19:20:18.490Z,67.63
2022-09-22T19:22:47.079Z,67.71
2022-09-22T19:25:16.076Z,67.84
2022-09-22T19:27:43.423Z,68.03
2022-09-22T19:30:11.646Z,67.83
2022-09-22T19:32:40.389Z,67.94
2022-09-22T19:35:08.992Z,67.90
2022-09-22T19:37:36.715Z,67.91
2022-09-22T19:40:05.872Z,68.58
2022-09-22T19:42:39.222Z,68.36
2022-09-22T19:45:07.903Z,68.83
2022-09-22T19:47:35.158Z,68.47
2022-09-22T19:50:02.269Z,68.86
2022-09-22T19:52:29.472Z,68.48
2022-09-22T19:54:56.857Z,68.32
2022-09-22T19:57:24.310Z,68.16
2022-09-22T19:59:51.506Z,68.61
2022-09-22T20:02:20.840Z,68.74
2022-09-22T20:04:48.044Z,68.63
2022-09-22T20:07:15.387Z,68.61
2022-09-22T20:09:45.931Z,68.24
2022-09-22T20:15:05.936Z,68.58
2022-09-22T20:17:33.131Z,69.06
2022-09-22T20:20:00.721Z,68.66
2022-09-22T20:22:30.351Z,69.15
2022-09-22T20:25:01.498Z,69.52
2022-09-22T20:27:32.995Z,69.54
2022-09-22T20:30:00.873Z,69.91
2022-09-22T20:32:34.618Z,69.45
2022-09-22T20:35:01.975Z,69.31
2022-09-22T20:37:31.917Z,69.64
2022-09-22T20:40:07.520Z,69.62
2022-09-22T20:42:34.811Z,70.08
2022-09-22T20:45:01.983Z,70.11
2022-09-22T20:47:29.127Z,70.42
2022-09-22T20:49:57.169Z,70.04
2022-09-22T20:52:24.295Z,70.53
2022-09-22T20:54:51.481Z,70.47
2022-09-22T20:57:18.655Z,70.30
2022-09-22T20:59:46.178Z,70.69
2022-09-22T21:02:15.054Z,69.85
2022-09-22T21:04:42.775Z,69.99
2022-09-22T21:07:11.600Z,69.86
2022-09-22T21:09:57.616Z,69.70
2022-09-22T21:12:30.734Z,69.55
2022-09-22T21:14:58.861Z,69.70
2022-09-22T21:17:27.874Z,69.92
2022-09-22T21:19:57.859Z,69.74
2022-09-22T21:22:28.223Z,69.96
2022-09-22T21:24:56.416Z,70.56
2022-09-22T21:27:25.145Z,70.34
2022-09-22T21:29:53.265Z,70.03
2022-09-22T21:32:20.761Z,70.94
2022-09-22T21:34:48.044Z,70.63
2022-09-22T21:37:15.198Z,70.79
2022-09-22T21:39:42.422Z,71.07
2022-09-22T21:42:09.647Z,70.90
2022-09-22T21:44:36.759Z,70.74
2022-09-22T21:47:04.907Z,70.51
2022-09-22T21:49:32.975Z,70.43
2022-09-22T21:52:01.193Z,70.80
2022-09-22T21:54:28.417Z,70.26
2022-09-22T21:56:56.700Z,70.57
2022-09-22T21:59:23.888Z,70.23
2022-09-22T22:01:51.112Z,71.02
2022-09-22T22:04:18.421Z,70.67
2022-09-22T22:06:46.825Z,71.01
2022-09-22T22:09:23.281Z,70.92
2022-09-22T22:11:57.339Z,70.84
2022-09-22T22:14:34.934Z,70.66
2022-09-22T22:17:02.394Z,71.19
2022-09-22T22:19:29.999Z,71.82
2022-09-22T22:21:57.275Z,70.99
2022-09-22T22:24:28.850Z,71.14
2022-09-22T22:27:10.177Z,71.36
2022-09-22T22:29:38.739Z,70.89
2022-09-22T22:32:09.171Z,71.10
2022-09-22T22:34:36.844Z,70.78
2022-09-22T22:37:07.133Z,70.58
2022-09-22T22:39:34.553Z,70.86
2022-09-22T22:42:01.711Z,71.41
2022-09-22T22:44:29.050Z,71.04
2022-09-22T22:46:56.194Z,71.30
2022-09-22T22:49:23.408Z,71.61
2022-09-22T22:51:52.270Z,71.38
2022-09-22T22:54:19.519Z,71.25
2022-09-22T22:56:50.338Z,71.90
2022-09-22T22:59:18.961Z,71.94
2022-09-22T23:01:46.316Z,72.48
2022-09-22T23:04:13.713Z,71.79
2022-09-22T23:06:47.761Z,72.66
2022-09-22T23:09:17.263Z,72.91
2022-09-22T23:11:46.466Z,72.00
2022-09-22T23:14:16.210Z,72.29
2022-09-22T23:16:49.603Z,72.43
2022-09-22T23:19:18.610Z,72.35
2022-09-22T23:21:46.488Z,71.90
2022-09-22T23:24:16.600Z,71.90
2022-09-22T23:26:45.931Z,71.78
2022-09-22T23:29:13.590Z,71.95
2022-09-22T23:31:40.881Z,72.19
2022-09-22T23:34:08.183Z,72.12
2022-09-22T23:36:35.738Z,71.79
2022-09-22T23:39:04.351Z,71.69
2022-09-22T23:41:37.315Z,71.65
2022-09-22T23:44:08.655Z,71.55
2022-09-22T23:46:37.555Z,72.05
2022-09-22T23:49:06.179Z,71.80
2022-09-22T23:51:33.355Z,71.65
2022-09-22T23:54:00.558Z,72.14
2022-09-22T23:56:27.897Z,71.96
2022-09-22T23:58:55.249Z,71.26
